Time;durP1;ratioP1;P1;durP2;ratioP2;P2;SDS_P1;SDS_P2;PMS_P1;PMS_P2;Temp;Humidity;BMP_temperature;BMP_pressure;BME280_temperature;BME280_humidity;BME280_pressure;Samples;Min_cycle;Max_cycle;Signal;HPM_P1;HPM_P2
2021/09/28 00:00:37;;;;;;;11.75;3.72;;;16.50;98.40;;;;;;5065734;28;20161;-80
2021/09/28 00:03:04;;;;;;;6.72;3.67;;;16.40;98.50;;;;;;5066446;28;20028;-81
2021/09/28 00:05:30;;;;;;;7.22;3.42;;;16.40;98.80;;;;;;5065667;28;20029;-82
2021/09/28 00:07:55;;;;;;;4.63;3.67;;;16.40;99.00;;;;;;5066460;28;20024;-81
2021/09/28 00:10:21;;;;;;;;;;;16.40;99.10;;;;;;5065806;28;20040;-79
2021/09/28 00:12:47;;;;;;;5.55;3.35;;;16.40;99.30;;;;;;5065464;28;20337;-79
2021/09/28 00:15:14;;;;;;;4.75;3.20;;;16.30;99.30;;;;;;5066946;28;20036;-79
2021/09/28 00:17:40;;;;;;;6.95;3.55;;;16.30;99.30;;;;;;5066796;28;20032;-78
2021/09/28 00:20:07;;;;;;;4.85;3.67;;;16.30;99.50;;;;;;5065321;28;20550;-78
2021/09/28 00:22:34;;;;;;;6.88;4.00;;;16.30;99.60;;;;;;5066766;28;20052;-78
2021/09/28 00:24:59;;;;;;;5.20;3.55;;;16.20;99.80;;;;;;5065976;28;20029;-77
2021/09/28 00:27:25;;;;;;;4.68;3.55;;;16.20;99.90;;;;;;5066112;28;20036;-77
2021/09/28 00:29:51;;;;;;;5.57;3.97;;;16.20;99.90;;;;;;5066453;28;20024;-78
2021/09/28 00:32:16;;;;;;;5.10;3.80;;;16.20;99.90;;;;;;5066167;28;20028;-77
2021/09/28 00:34:42;;;;;;;;;;;16.10;99.90;;;;;;5067028;28;20029;-77
2021/09/28 00:37:08;;;;;;;5.97;4.18;;;16.10;99.90;;;;;;5066636;28;19920;-80
2021/09/28 00:39:34;;;;;;;13.45;3.92;;;16.10;99.90;;;;;;5064826;28;20040;-79
2021/09/28 00:42:00;;;;;;;5.95;3.97;;;16.20;99.90;;;;;;5065104;28;20165;-79
2021/09/28 00:44:37;;;;;;;4.70;3.90;;;16.20;99.90;;;;;;5066683;28;20115;-78
2021/09/28 00:47:04;;;;;;;10.43;4.90;;;16.20;99.90;;;;;;5066685;28;20020;-79
2021/09/28 00:49:30;;;;;;;8.18;3.50;;;16.30;99.90;;;;;;5065543;28;20560;-79
2021/09/28 00:51:56;;;;;;;5.75;3.55;;;16.30;99.90;;;;;;5066242;28;20108;-79
2021/09/28 00:54:21;;;;;;;5.45;3.33;;;16.30;99.90;;;;;;5066062;28;20505;-80
2021/09/28 00:56:47;;;;;;;;;;;16.30;99.90;;;;;;5066452;28;20067;-78
2021/09/28 00:59:14;;;;;;;4.93;3.45;;;16.20;99.90;;;;;;5066174;28;20023;-79
2021/09/28 01:01:39;;;;;;;16.85;3.67;;;16.10;99.90;;;;;;5064732;28;20055;-78
2021/09/28 01:04:06;;;;;;;5.53;3.20;;;16.10;99.90;;;;;;5064885;28;20028;-78
2021/09/28 01:06:32;;;;;;;7.00;3.50;;;16.10;99.90;;;;;;5065758;28;20033;-78
2021/09/28 01:08:58;;;;;;;9.23;3.70;;;16.00;99.90;;;;;;5066220;28;20400;-78
2021/09/28 01:11:24;;;;;;;13.25;4.05;;;16.00;99.90;;;;;;5065981;28;20025;-78
2021/09/28 01:13:49;;;;;;;6.35;3.58;;;15.90;99.90;;;;;;5065788;28;20040;-78
2021/09/28 01:16:15;;;;;;;3.80;3.00;;;15.90;99.90;;;;;;5065824;28;20154;-78
2021/09/28 01:18:42;;;;;;;11.07;3.70;;;15.80;99.90;;;;;;5065916;28;20040;-78
2021/09/28 01:21:11;;;;;;;6.30;3.13;;;15.80;99.90;;;;;;5066049;28;20127;-78
2021/09/28 01:23:44;;;;;;;6.40;3.53;;;15.80;99.90;;;;;;5065022;28;20411;-79
2021/09/28 01:26:10;;;;;;;5.28;3.85;;;15.70;99.90;;;;;;5064151;28;20029;-78
2021/09/28 01:28:37;;;;;;;5.45;3.35;;;15.70;99.90;;;;;;5066108;28;20131;-78
2021/09/28 01:31:03;;;;;;;5.22;3.72;;;15.60;99.90;;;;;;5064796;28;20024;-79
2021/09/28 01:33:28;;;;;;;5.70;3.00;;;15.60;99.90;;;;;;5064322;28;20028;-80
2021/09/28 01:35:54;;;;;;;;;;;15.60;99.90;;;;;;5067349;28;20404;-79
2021/09/28 01:38:20;;;;;;;5.50;3.42;;;15.50;99.90;;;;;;5067918;28;20377;-78
2021/09/28 01:40:46;;;;;;;9.13;4.32;;;15.50;99.90;;;;;;5069459;28;20021;-79
2021/09/28 01:43:13;;;;;;;12.07;4.03;;;15.50;99.90;;;;;;5069335;28;20036;-80
2021/09/28 01:45:39;;;;;;;6.05;4.18;;;15.50;99.90;;;;;;5068771;28;20036;-80
2021/09/28 01:48:06;;;;;;;5.78;3.97;;;15.40;99.90;;;;;;5069553;28;20032;-80
2021/09/28 01:50:33;;;;;;;10.40;5.05;;;15.40;99.90;;;;;;5068766;28;20029;-81
2021/09/28 01:52:59;;;;;;;4.70;3.97;;;15.50;99.90;;;;;;5070007;28;20020;-81
2021/09/28 01:55:25;;;;;;;;;;;15.50;99.90;;;;;;5069574;28;20033;-81
2021/09/28 01:57:55;;;;;;;10.15;4.30;;;15.50;99.90;;;;;;5069489;28;19912;-80
2021/09/28 02:00:22;;;;;;;7.75;4.35;;;15.50;99.90;;;;;;5068494;28;20463;-81
2021/09/28 02:02:48;;;;;;;7.03;4.07;;;15.60;99.90;;;;;;5069706;28;20037;-80
2021/09/28 02:05:14;;;;;;;6.60;4.30;;;15.60;99.90;;;;;;5069648;28;20162;-80
2021/09/28 02:07:39;;;;;;;;;;;15.60;99.90;;;;;;5068304;28;20515;-80
2021/09/28 02:10:06;;;;;;;4.57;3.60;;;15.50;99.90;;;;;;5068787;28;19914;-81
2021/09/28 02:12:33;;;;;;;5.90;3.92;;;15.50;99.90;;;;;;5069159;28;20043;-80
2021/09/28 02:14:58;;;;;;;5.18;3.90;;;15.50;99.90;;;;;;5067945;28;20509;-79
2021/09/28 02:17:24;;;;;;;;;;;15.50;99.90;;;;;;5068184;28;20029;-79
2021/09/28 02:19:49;;;;;;;4.82;4.10;;;15.50;99.90;;;;;;5068907;28;19911;-80
2021/09/28 02:22:15;;;;;;;10.88;4.20;;;15.50;99.90;;;;;;5069090;28;20609;-80
2021/09/28 02:24:41;;;;;;;5.53;3.53;;;15.50;99.90;;;;;;5068797;28;20028;-81
2021/09/28 02:27:06;;;;;;;5.22;3.80;;;15.50;99.90;;;;;;5068968;28;20103;-80
2021/09/28 02:29:33;;;;;;;;;;;15.50;99.90;;;;;;5067993;28;20029;-81
2021/09/28 02:31:59;;;;;;;10.35;3.83;;;15.50;99.90;;;;;;5071921;28;19918;-79
2021/09/28 02:34:25;;;;;;;6.13;3.55;;;15.50;99.90;;;;;;5069093;28;20053;-79
2021/09/28 02:36:50;;;;;;;;;;;15.60;99.90;;;;;;5068989;28;20429;-81
2021/09/28 02:39:16;;;;;;;4.88;3.70;;;15.60;99.90;;;;;;5068479;28;19971;-80
2021/09/28 02:41:41;;;;;;;;;;;15.60;99.90;;;;;;5068586;28;20052;-80
2021/09/28 02:44:07;;;;;;;5.03;3.63;;;15.70;99.90;;;;;;5068398;28;19915;-80
2021/09/28 02:46:33;;;;;;;;;;;15.70;99.90;;;;;;5068676;28;20036;-79
2021/09/28 02:48:59;;;;;;;6.90;3.88;;;15.80;99.90;;;;;;5067907;28;19908;-79
2021/09/28 02:51:25;;;;;;;5.05;3.55;;;15.80;99.90;;;;;;5068495;28;20032;-80
2021/09/28 02:53:50;;;;;;;5.30;3.88;;;15.90;99.90;;;;;;5067931;28;20856;-80
2021/09/28 02:56:16;;;;;;;5.28;3.55;;;15.90;99.90;;;;;;5068319;28;20033;-80
2021/09/28 02:58:42;;;;;;;7.85;3.75;;;16.00;99.90;;;;;;5068267;28;20072;-81
2021/09/28 03:01:07;;;;;;;7.15;3.50;;;16.10;99.90;;;;;;5067432;28;20120;-81
2021/09/28 03:03:33;;;;;;;;;;;16.20;99.90;;;;;;5067146;28;20454;-80
2021/09/28 03:05:59;;;;;;;8.93;4.30;;;16.20;99.90;;;;;;5068350;28;19912;-79
2021/09/28 03:08:24;;;;;;;8.25;4.32;;;16.20;99.90;;;;;;5067536;28;20030;-79
2021/09/28 03:10:50;;;;;;;10.75;4.13;;;16.20;99.90;;;;;;5067673;28;20035;-80
2021/09/28 03:13:16;;;;;;;6.05;3.70;;;16.20;99.90;;;;;;5066583;28;20016;-80
2021/09/28 03:15:41;;;;;;;4.53;3.78;;;16.30;99.90;;;;;;5067508;28;20037;-79
2021/09/28 03:18:07;;;;;;;;;;;16.30;99.90;;;;;;5066892;28;20391;-80
2021/09/28 03:20:33;;;;;;;13.32;4.93;;;16.30;99.90;;;;;;5067759;28;19915;-80
2021/09/28 03:22:58;;;;;;;6.47;4.20;;;16.30;99.90;;;;;;5067605;28;20449;-80
2021/09/28 03:25:24;;;;;;;;;;;16.30;99.90;;;;;;5067684;28;20019;-79
2021/09/28 03:27:50;;;;;;;8.15;4.30;;;16.30;99.90;;;;;;5067275;28;20289;-80
2021/09/28 03:30:16;;;;;;;6.10;4.07;;;16.30;99.90;;;;;;5065652;28;20028;-81
2021/09/28 03:32:42;;;;;;;5.78;3.63;;;16.40;99.90;;;;;;5067741;28;20024;-80
2021/09/28 03:35:10;;;;;;;4.53;3.45;;;16.40;99.90;;;;;;5067280;28;20039;-80
2021/09/28 03:37:42;;;;;;;7.13;3.72;;;16.40;99.90;;;;;;5067029;28;20056;-81
2021/09/28 03:40:09;;;;;;;6.05;3.90;;;16.50;99.90;;;;;;5067239;28;20046;-81
2021/09/28 03:42:35;;;;;;;8.07;4.20;;;16.50;99.90;;;;;;5065231;28;20029;-80
2021/09/28 03:45:01;;;;;;;5.53;3.50;;;16.60;99.90;;;;;;5067408;28;20031;-80
2021/09/28 03:47:26;;;;;;;4.55;2.90;;;16.60;99.90;;;;;;5065824;28;20021;-79
2021/09/28 03:49:52;;;;;;;5.35;3.70;;;16.60;99.90;;;;;;5067370;28;20032;-80
2021/09/28 03:52:18;;;;;;;6.10;3.33;;;16.60;99.90;;;;;;5066947;28;20094;-80
2021/09/28 03:54:44;;;;;;;7.43;4.05;;;16.60;99.90;;;;;;5067175;28;20500;-79
2021/09/28 03:57:10;;;;;;;4.03;3.30;;;16.60;99.90;;;;;;5067097;28;20024;-79
2021/09/28 03:59:36;;;;;;;5.30;3.17;;;16.60;99.90;;;;;;5065760;28;20032;-80
2021/09/28 04:02:02;;;;;;;4.68;3.30;;;16.60;99.90;;;;;;5067082;28;20520;-80
2021/09/28 04:04:28;;;;;;;5.05;3.65;;;16.60;99.90;;;;;;5065680;28;20064;-79
2021/09/28 04:06:53;;;;;;;7.80;5.35;;;16.60;99.90;;;;;;5066842;28;20033;-80
2021/09/28 04:09:19;;;;;;;12.07;6.05;;;16.60;99.90;;;;;;5065417;28;20020;-81
2021/09/28 04:11:45;;;;;;;6.93;4.22;;;16.60;99.90;;;;;;5066747;28;20039;-79
2021/09/28 04:14:12;;;;;;;4.32;3.45;;;16.60;99.90;;;;;;5066522;28;20017;-79
2021/09/28 04:16:38;;;;;;;7.30;4.10;;;16.60;99.90;;;;;;5066604;28;20052;-80
2021/09/28 04:19:04;;;;;;;4.68;3.55;;;16.60;99.90;;;;;;5066713;28;20078;-79
2021/09/28 04:21:29;;;;;;;6.85;3.67;;;16.60;99.90;;;;;;5064627;28;20048;-79
2021/09/28 04:23:56;;;;;;;7.78;3.50;;;16.60;99.90;;;;;;5065181;28;20091;-80
2021/09/28 04:26:21;;;;;;;6.35;3.70;;;16.60;99.90;;;;;;5065224;28;20025;-79
2021/09/28 04:28:48;;;;;;;6.57;4.07;;;16.60;99.90;;;;;;5066502;28;20078;-79
2021/09/28 04:31:15;;;;;;;7.10;3.13;;;16.60;99.90;;;;;;5066639;28;20136;-78
2021/09/28 04:33:42;;;;;;;5.07;3.40;;;16.60;99.90;;;;;;5065035;28;20107;-79
2021/09/28 04:36:08;;;;;;;6.85;3.42;;;16.60;99.90;;;;;;5066168;28;21067;-79
2021/09/28 04:38:33;;;;;;;4.03;3.58;;;16.60;99.90;;;;;;5064662;28;20521;-79
2021/09/28 04:41:00;;;;;;;7.20;3.65;;;16.60;99.90;;;;;;5064878;28;20481;-78
2021/09/28 04:43:25;;;;;;;6.47;4.38;;;16.60;99.90;;;;;;5066047;28;20028;-79
2021/09/28 04:45:52;;;;;;;9.10;4.25;;;16.60;99.90;;;;;;5066594;28;20021;-78
2021/09/28 04:48:17;;;;;;;5.15;3.72;;;16.60;99.90;;;;;;5065342;28;20102;-79
2021/09/28 04:50:43;;;;;;;6.00;3.78;;;16.60;99.90;;;;;;5065426;28;20393;-79
2021/09/28 04:53:09;;;;;;;6.38;3.65;;;16.50;99.90;;;;;;5065949;28;20028;-78
2021/09/28 04:55:34;;;;;;;7.13;3.42;;;16.60;99.90;;;;;;5064795;28;20036;-79
2021/09/28 04:58:00;;;;;;;5.18;3.40;;;16.50;99.90;;;;;;5064532;28;20054;-79
2021/09/28 05:00:26;;;;;;;7.80;4.07;;;16.60;99.90;;;;;;5066163;28;20472;-80
2021/09/28 05:02:51;;;;;;;8.60;3.95;;;16.60;99.90;;;;;;5066138;28;20093;-78
2021/09/28 05:05:17;;;;;;;15.18;4.57;;;16.60;99.90;;;;;;5066172;28;20028;-79
2021/09/28 05:07:43;;;;;;;10.43;4.20;;;16.60;99.90;;;;;;5064586;28;20040;-79
2021/09/28 05:10:09;;;;;;;8.43;4.13;;;16.60;99.90;;;;;;5067373;28;20025;-79
2021/09/28 05:12:35;;;;;;;15.40;5.05;;;16.50;99.90;;;;;;5070382;28;20029;-79
2021/09/28 05:15:01;;;;;;;11.15;4.43;;;16.50;99.90;;;;;;5070024;28;20024;-79
2021/09/28 05:17:27;;;;;;;7.93;4.40;;;16.50;99.90;;;;;;5068677;28;20397;-79
2021/09/28 05:19:53;;;;;;;7.28;3.95;;;16.50;99.90;;;;;;5068631;28;20532;-79
2021/09/28 05:22:18;;;;;;;12.73;4.10;;;16.50;99.90;;;;;;5068672;28;20099;-80
2021/09/28 05:24:44;;;;;;;12.05;3.67;;;16.60;99.90;;;;;;5068702;28;20443;-79
2021/09/28 05:27:10;;;;;;;7.10;4.25;;;16.60;99.90;;;;;;5068818;28;20020;-80
2021/09/28 05:29:36;;;;;;;11.45;4.35;;;16.60;99.90;;;;;;5069986;28;20069;-79
2021/09/28 05:32:01;;;;;;;6.65;4.10;;;16.60;99.90;;;;;;5069823;28;20044;-78
2021/09/28 05:34:27;;;;;;;7.88;4.15;;;16.70;99.90;;;;;;5068571;28;20396;-80
2021/09/28 05:36:55;;;;;;;7.80;4.82;;;16.70;99.90;;;;;;5069823;28;20049;-80
2021/09/28 05:39:20;;;;;;;8.90;4.13;;;16.80;99.90;;;;;;5069526;28;20033;-80
2021/09/28 05:41:46;;;;;;;12.02;4.78;;;16.80;99.90;;;;;;5069459;28;20024;-79
2021/09/28 05:44:12;;;;;;;8.38;4.60;;;16.80;99.90;;;;;;5069803;28;20031;-80
2021/09/28 05:46:37;;;;;;;9.80;4.13;;;16.90;99.90;;;;;;5069812;28;20067;-79
2021/09/28 05:49:03;;;;;;;18.08;4.93;;;17.00;99.90;;;;;;5067996;28;20504;-80
2021/09/28 05:51:32;;;;;;;8.23;4.53;;;17.00;99.90;;;;;;5069362;28;20024;-79
2021/09/28 05:54:00;;;;;;;7.05;4.30;;;17.10;99.90;;;;;;5069322;28;20513;-81
2021/09/28 05:56:25;;;;;;;11.52;4.20;;;17.30;99.90;;;;;;5068766;28;20054;-77
2021/09/28 05:58:52;;;;;;;6.07;3.78;;;17.40;99.90;;;;;;5068313;28;20123;-77
2021/09/28 06:01:18;;;;;;;7.35;4.45;;;17.50;99.90;;;;;;5067029;28;20020;-77
2021/09/28 06:03:43;;;;;;;10.57;4.85;;;17.70;99.90;;;;;;5066621;28;20523;-78
2021/09/28 06:06:09;;;;;;;8.35;5.03;;;17.80;99.90;;;;;;5067133;28;20032;-78
2021/09/28 06:08:35;;;;;;;11.75;4.85;;;18.00;99.90;;;;;;5067427;28;20098;-77
2021/09/28 06:11:01;;;;;;;6.88;4.55;;;18.30;99.90;;;;;;5067658;28;20124;-78
2021/09/28 06:13:27;;;;;;;6.47;3.53;;;18.50;99.90;;;;;;5069359;28;20112;-82
2021/09/28 06:15:53;;;;;;;11.10;4.43;;;18.80;99.90;;;;;;5067554;28;20563;-82
2021/09/28 06:18:19;;;;;;;6.13;4.30;;;19.00;99.80;;;;;;5067477;28;20044;-80
2021/09/28 06:20:45;;;;;;;10.07;5.05;;;19.30;99.30;;;;;;5066765;28;20067;-79
2021/09/28 06:23:11;;;;;;;13.23;4.68;;;19.50;98.80;;;;;;5068094;28;20048;-78
2021/09/28 06:25:37;;;;;;;8.43;4.10;;;19.80;98.30;;;;;;5068322;28;20027;-78
2021/09/28 06:28:04;;;;;;;6.20;4.13;;;19.90;97.20;;;;;;5067304;28;20036;-81
2021/09/28 06:30:29;;;;;;;8.60;4.00;;;20.10;96.70;;;;;;5068076;28;20035;-80
2021/09/28 06:32:55;;;;;;;12.15;3.97;;;20.30;95.90;;;;;;5068726;28;20024;-81
2021/09/28 06:35:21;;;;;;;6.25;3.78;;;20.50;95.40;;;;;;5068553;28;20062;-81
2021/09/28 06:37:47;;;;;;;8.30;3.78;;;20.60;95.10;;;;;;5068242;28;20129;-81
2021/09/28 06:40:13;;;;;;;9.35;4.07;;;20.60;94.60;;;;;;5067252;28;20067;-82
2021/09/28 06:42:38;;;;;;;5.72;3.95;;;20.70;94.30;;;;;;5067326;28;20055;-81
2021/09/28 06:45:04;;;;;;;5.40;3.85;;;20.70;94.10;;;;;;5067189;28;20040;-79
2021/09/28 06:47:30;;;;;;;8.70;3.55;;;20.80;93.60;;;;;;5068401;28;20194;-80
2021/09/28 06:49:56;;;;;;;13.00;4.07;;;20.70;93.40;;;;;;5066721;28;20111;-80
2021/09/28 06:52:21;;;;;;;5.85;3.03;;;20.80;93.40;;;;;;5067906;28;20405;-80
2021/09/28 06:54:47;;;;;;;6.68;3.67;;;20.80;93.00;;;;;;5068349;28;20068;-81
2021/09/28 06:57:12;;;;;;;5.00;3.63;;;20.70;93.00;;;;;;5067951;28;20497;-79
2021/09/28 06:59:38;;;;;;;7.20;3.63;;;20.80;93.10;;;;;;5066941;28;20029;-79
2021/09/28 07:02:04;;;;;;;9.63;4.03;;;21.00;92.90;;;;;;5068056;28;20040;-81
2021/09/28 07:04:30;;;;;;;6.18;3.35;;;21.10;92.50;;;;;;5067186;28;20028;-80
2021/09/28 07:06:55;;;;;;;10.38;3.63;;;21.10;91.80;;;;;;5066132;28;20032;-79
2021/09/28 07:09:21;;;;;;;6.82;3.38;;;21.10;91.40;;;;;;5067805;28;20033;-80
2021/09/28 07:11:47;;;;;;;6.07;3.40;;;21.00;91.60;;;;;;5067553;28;20070;-79
2021/09/28 07:14:13;;;;;;;4.10;2.83;;;20.90;92.00;;;;;;5067449;28;20090;-79
2021/09/28 07:16:38;;;;;;;4.82;2.92;;;21.00;92.00;;;;;;5067973;28;20037;-79
2021/09/28 07:19:04;;;;;;;6.25;3.53;;;21.00;91.50;;;;;;5067805;28;20036;-79
2021/09/28 07:21:30;;;;;;;4.93;3.13;;;20.90;91.60;;;;;;5067468;28;20085;-79
2021/09/28 07:23:55;;;;;;;5.55;3.15;;;21.00;91.70;;;;;;5067285;28;20062;-77
2021/09/28 07:26:21;;;;;;;4.95;3.15;;;21.00;91.80;;;;;;5067714;28;20020;-78
2021/09/28 07:28:46;;;;;;;5.00;2.97;;;21.10;91.80;;;;;;5067613;28;20071;-78
2021/09/28 07:31:12;;;;;;;4.72;3.50;;;21.10;91.60;;;;;;5067479;28;20115;-79
2021/09/28 07:33:38;;;;;;;7.97;3.65;;;21.20;91.40;;;;;;5067209;28;20024;-79
2021/09/28 07:36:05;;;;;;;4.75;3.33;;;21.30;91.40;;;;;;5066975;28;20115;-80
2021/09/28 07:38:32;;;;;;;6.45;2.95;;;21.30;91.50;;;;;;5066628;28;20117;-80
2021/09/28 07:40:58;;;;;;;10.40;3.60;;;21.40;91.20;;;;;;5066984;28;20028;-79
2021/09/28 07:43:24;;;;;;;6.57;3.72;;;21.50;90.90;;;;;;5067143;28;20374;-79
2021/09/28 07:45:50;;;;;;;6.32;3.40;;;21.60;90.80;;;;;;5066753;28;20032;-79
2021/09/28 07:48:15;;;;;;;7.60;3.85;;;21.80;90.40;;;;;;5067166;28;20028;-79
2021/09/28 07:50:41;;;;;;;9.25;3.92;;;22.00;89.90;;;;;;5065086;28;20404;-79
2021/09/28 07:53:07;;;;;;;12.93;4.75;;;22.20;89.30;;;;;;5066954;28;20029;-79
2021/09/28 07:55:35;;;;;;;13.10;3.85;;;22.50;88.60;;;;;;5066790;28;20028;-79
2021/09/28 07:58:01;;;;;;;8.15;3.25;;;22.70;86.70;;;;;;5064867;28;20036;-76
2021/09/28 08:00:26;;;;;;;11.73;3.90;;;22.80;85.80;;;;;;5066684;28;20021;-78
2021/09/28 08:02:52;;;;;;;6.43;4.18;;;23.10;85.50;;;;;;5063038;28;20025;-76
2021/09/28 08:05:17;;;;;;;5.35;3.20;;;23.20;84.00;;;;;;5065734;28;20559;-77
2021/09/28 08:07:43;;;;;;;6.43;4.00;;;23.50;82.80;;;;;;5061201;28;20047;-77
2021/09/28 08:10:12;;;;;;;6.30;3.47;;;23.70;81.40;;;;;;5065917;28;20040;-76
2021/09/28 08:12:38;;;;;;;8.90;2.85;;;23.80;80.30;;;;;;5064170;28;20115;-76
2021/09/28 08:15:05;;;;;;;8.63;3.65;;;23.80;80.60;;;;;;5063671;28;20146;-78
2021/09/28 08:17:31;;;;;;;8.70;3.63;;;23.80;79.50;;;;;;5060579;28;20173;-77
2021/09/28 08:19:57;;;;;;;4.95;2.78;;;23.90;79.60;;;;;;5065110;28;20044;-77
2021/09/28 08:22:23;;;;;;;7.68;3.60;;;24.00;79.60;;;;;;5063454;28;20121;-76
2021/09/28 08:24:52;;;;;;;4.70;3.50;;;24.20;78.50;;;;;;5063069;28;20490;-77
2021/09/28 08:30:07;;;;;;;7.30;3.55;;;24.20;77.70;;;;;;5065581;28;20105;-77
2021/09/28 08:32:33;;;;;;;10.93;4.78;;;24.30;76.90;;;;;;5063831;28;20735;-77
2021/09/28 08:34:58;;;;;;;9.20;4.15;;;24.40;76.50;;;;;;5062815;28;20037;-77
2021/09/28 08:37:26;;;;;;;10.18;4.45;;;24.40;76.40;;;;;;5063433;28;20052;-77
2021/09/28 08:39:53;;;;;;;6.30;4.15;;;24.40;76.30;;;;;;5064096;28;20032;-77
2021/09/28 08:42:19;;;;;;;5.13;3.88;;;24.40;76.50;;;;;;5064123;28;20153;-77
2021/09/28 08:44:45;;;;;;;5.97;3.78;;;24.40;76.30;;;;;;5062691;28;20036;-77
2021/09/28 08:47:10;;;;;;;6.22;4.05;;;24.40;76.10;;;;;;5063613;28;20051;-78
2021/09/28 08:49:36;;;;;;;10.85;4.53;;;24.30;76.00;;;;;;5065049;28;20033;-76
2021/09/28 08:52:04;;;;;;;4.93;4.03;;;24.30;76.40;;;;;;5063065;28;20498;-76
2021/09/28 08:54:30;;;;;;;9.18;4.53;;;24.20;76.50;;;;;;5062975;28;20652;-77
2021/09/28 08:56:56;;;;;;;6.18;3.70;;;24.30;75.90;;;;;;5056334;28;20099;-76
2021/09/28 08:59:22;;;;;;;6.43;4.53;;;24.10;76.60;;;;;;5063564;28;20505;-77
2021/09/28 09:01:53;;;;;;;6.20;4.32;;;23.90;77.90;;;;;;5060796;28;20033;-76
2021/09/28 09:04:20;;;;;;;6.07;4.70;;;23.80;77.50;;;;;;5059442;28;20040;-76
2021/09/28 09:06:46;;;;;;;9.75;4.38;;;23.70;78.60;;;;;;5063324;28;20047;-76
2021/09/28 09:09:13;;;;;;;9.98;4.07;;;23.70;78.60;;;;;;5058681;28;20045;-78
2021/09/28 09:11:42;;;;;;;7.68;4.57;;;23.70;79.00;;;;;;5065102;28;20025;-76
2021/09/28 09:14:15;;;;;;;15.90;5.05;;;23.70;79.50;;;;;;5061845;28;20081;-77
2021/09/28 09:16:42;;;;;;;9.00;5.65;;;23.80;79.60;;;;;;5063563;28;20044;-77
2021/09/28 09:19:12;;;;;;;5.85;4.57;;;23.80;79.40;;;;;;5063144;28;20116;-76
2021/09/28 09:22:05;;;;;;;6.22;4.05;;;23.80;79.30;;;;;;5062575;28;20489;-76
2021/09/28 09:24:41;;;;;;;7.18;4.68;;;23.80;79.20;;;;;;5064795;28;20037;-77
2021/09/28 09:27:11;;;;;;;7.15;4.57;;;24.00;78.80;;;;;;5062117;28;20761;-76
2021/09/28 09:29:37;;;;;;;12.18;4.50;;;24.10;77.00;;;;;;5064563;28;20037;-77
2021/09/28 09:32:03;;;;;;;15.25;5.05;;;24.00;76.90;;;;;;5063643;28;20039;-77
2021/09/28 09:34:29;;;;;;;6.10;4.60;;;24.00;77.10;;;;;;5060326;28;20057;-77
2021/09/28 09:36:57;;;;;;;6.85;4.13;;;24.10;77.10;;;;;;5064517;28;20049;-76
2021/09/28 09:39:23;;;;;;;8.50;4.35;;;24.10;77.10;;;;;;5064597;28;20044;-76
2021/09/28 09:42:03;;;;;;;7.90;5.03;;;24.20;76.50;;;;;;5064692;28;20033;-76
2021/09/28 09:44:30;;;;;;;8.82;4.45;;;24.20;75.90;;;;;;5060658;28;20029;-77
2021/09/28 09:46:56;;;;;;;6.20;4.55;;;24.00;76.40;;;;;;5060461;28;20043;-78
2021/09/28 09:49:24;;;;;;;8.93;4.68;;;24.00;77.00;;;;;;5064014;28;20405;-78
2021/09/28 09:51:52;;;;;;;10.80;4.93;;;23.90;76.90;;;;;;5063732;28;20043;-77
2021/09/28 09:54:46;;;;;;;14.00;5.18;;;23.90;77.30;;;;;;5064431;28;20119;-78
2021/09/28 09:57:13;;;;;;;8.30;4.68;;;23.80;77.20;;;;;;5061334;28;20051;-78
2021/09/28 09:59:40;;;;;;;10.10;4.13;;;23.70;77.40;;;;;;5068037;28;20691;-78
2021/09/28 10:02:07;;;;;;;10.65;5.22;;;23.70;77.60;;;;;;5066324;28;20040;-78
2021/09/28 10:04:34;;;;;;;8.30;4.60;;;23.70;77.50;;;;;;5061934;28;20041;-78
2021/09/28 10:07:02;;;;;;;8.75;4.50;;;23.70;77.90;;;;;;5065843;28;20048;-79
2021/09/28 10:09:31;;;;;;;7.95;4.03;;;23.80;77.60;;;;;;5068816;28;20527;-79
2021/09/28 10:12:02;;;;;;;6.57;4.93;;;23.70;78.20;;;;;;5068930;28;20051;-79
2021/09/28 10:14:35;;;;;;;9.07;5.28;;;23.70;77.60;;;;;;5068934;28;20122;-77
2021/09/28 10:17:28;;;;;;;5.90;4.65;;;23.60;77.20;;;;;;5068797;28;20123;-79
2021/09/28 10:20:03;;;;;;;6.53;4.18;;;23.60;77.10;;;;;;5068037;28;20036;-78
2021/09/28 10:22:54;;;;;;;8.07;4.97;;;23.50;77.60;;;;;;5068776;28;20032;-79
2021/09/28 10:25:20;;;;;;;7.68;4.15;;;23.60;77.80;;;;;;5068336;28;20032;-78
2021/09/28 10:28:15;;;;;;;6.88;4.47;;;23.70;77.60;;;;;;5068755;28;20028;-80
2021/09/28 10:30:43;;;;;;;5.93;4.57;;;23.70;77.70;;;;;;5062642;28;20041;-79
2021/09/28 10:33:11;;;;;;;9.77;4.57;;;23.80;77.50;;;;;;5068446;28;20055;-80
2021/09/28 10:36:25;;;;;;;9.13;4.43;;;23.90;77.00;;;;;;5068127;28;20035;-78
2021/09/28 10:39:00;;;;;;;8.75;4.68;;;23.80;76.20;;;;;;5055186;28;20052;-79
2021/09/28 10:41:28;;;;;;;7.20;4.57;;;23.90;76.30;;;;;;5068761;28;20016;-80
2021/09/28 10:43:54;;;;;;;6.95;5.05;;;23.90;75.20;;;;;;5067798;28;20353;-79
2021/09/28 10:46:39;;;;;;;8.95;4.78;;;23.90;75.60;;;;;;5067112;28;20112;-80
2021/09/28 10:49:26;;;;;;;7.22;4.47;;;24.00;75.50;;;;;;5067630;28;20028;-79
2021/09/28 10:52:11;;;;;;;;;;;24.00;74.70;;;;;;5068211;28;20032;-80
2021/09/28 10:55:05;;;;;;;5.47;4.22;;;23.90;75.50;;;;;;5066187;28;20369;-80
2021/09/28 10:57:57;;;;;;;7.00;4.50;;;24.00;74.70;;;;;;5068055;28;20081;-80
2021/09/28 11:00:23;;;;;;;6.18;4.25;;;24.10;75.50;;;;;;5068076;28;20028;-79
2021/09/28 11:02:58;;;;;;;13.63;4.97;;;24.00;74.80;;;;;;5067704;28;20027;-80
2021/09/28 11:05:30;;;;;;;10.20;4.10;;;24.10;74.40;;;;;;5067550;28;20047;-79
2021/09/28 11:07:56;;;;;;;6.10;4.55;;;24.00;74.30;;;;;;5066026;28;20028;-79
2021/09/28 11:10:22;;;;;;;8.55;4.75;;;23.90;74.60;;;;;;5067868;28;20056;-80
2021/09/28 11:12:48;;;;;;;8.45;5.40;;;23.90;75.10;;;;;;5067964;28;20500;-80
2021/09/28 11:15:21;;;;;;;11.50;4.45;;;23.90;75.10;;;;;;5067424;28;20079;-79
2021/09/28 11:17:48;;;;;;;17.77;4.93;;;23.70;75.40;;;;;;5066905;28;20036;-77
2021/09/28 11:20:22;;;;;;;8.25;4.38;;;23.60;76.30;;;;;;5066559;28;20032;-78
2021/09/28 11:23:08;;;;;;;9.73;4.25;;;23.50;76.30;;;;;;5067049;28;20070;-79
2021/09/28 11:25:38;;;;;;;8.18;4.60;;;23.40;77.00;;;;;;5067199;28;20463;-79
2021/09/28 11:28:13;;;;;;;5.93;4.55;;;23.30;77.50;;;;;;5067546;28;20028;-79
2021/09/28 11:30:53;;;;;;;10.32;4.82;;;23.20;78.20;;;;;;5065610;28;20127;-80
2021/09/28 11:33:20;;;;;;;7.63;4.15;;;23.10;78.60;;;;;;5066623;28;20027;-78
2021/09/28 11:36:07;;;;;;;6.57;4.10;;;23.10;78.80;;;;;;5065560;28;20162;-80
2021/09/28 11:38:39;;;;;;;15.10;4.75;;;23.20;78.60;;;;;;5066789;28;20044;-79
2021/09/28 11:41:13;;;;;;;5.30;4.80;;;23.40;77.40;;;;;;5067406;28;20119;-80
2021/09/28 11:43:41;;;;;;;7.32;5.03;;;23.40;77.10;;;;;;5067410;28;20218;-80
2021/09/28 11:46:16;;;;;;;8.60;4.82;;;23.20;77.50;;;;;;5066741;28;20157;-80
2021/09/28 11:48:48;;;;;;;7.13;5.07;;;23.30;78.20;;;;;;5066584;28;20221;-79
2021/09/28 11:51:16;;;;;;;6.00;4.80;;;23.40;78.00;;;;;;5066983;28;20251;-81
2021/09/28 11:53:44;;;;;;;7.38;4.63;;;23.50;77.70;;;;;;5066509;28;20036;-79
2021/09/28 11:56:11;;;;;;;9.65;4.65;;;23.70;77.40;;;;;;5067135;28;20032;-80
2021/09/28 11:58:39;;;;;;;8.77;5.13;;;23.90;76.10;;;;;;5066641;28;20028;-80
2021/09/28 12:01:10;;;;;;;5.70;4.38;;;24.00;74.60;;;;;;5066528;28;20060;-80
2021/09/28 12:03:41;;;;;;;6.63;4.93;;;24.10;74.80;;;;;;5065311;28;20089;-79
2021/09/28 12:06:35;;;;;;;8.52;4.40;;;24.20;75.20;;;;;;5066143;28;20028;-80
2021/09/28 12:08:53;;;;;;;8.30;4.65;;;24.30;74.40;;;;;;5066301;28;20397;-79
2021/09/28 12:11:19;;;;;;;7.30;4.25;;;24.40;74.40;;;;;;5067097;28;20025;-80
2021/09/28 12:13:49;;;;;;;5.50;4.40;;;24.50;73.90;;;;;;5064985;28;20124;-80
2021/09/28 12:16:18;;;;;;;6.60;4.18;;;24.50;72.40;;;;;;5066681;28;20025;-80
2021/09/28 12:18:44;;;;;;;6.13;4.05;;;24.40;73.20;;;;;;5065145;28;20505;-81
2021/09/28 12:21:24;;;;;;;5.22;4.22;;;24.40;74.00;;;;;;5066139;28;20544;-79
2021/09/28 12:24:09;;;;;;;5.78;4.47;;;24.30;74.10;;;;;;5065398;28;20401;-79
2021/09/28 12:26:35;;;;;;;6.78;4.63;;;24.40;74.30;;;;;;5066209;28;20044;-79
2021/09/28 12:29:14;;;;;;;8.93;4.38;;;24.50;74.10;;;;;;5066633;28;20031;-79
2021/09/28 12:31:40;;;;;;;6.00;3.78;;;24.50;73.20;;;;;;5066275;28;20021;-80
2021/09/28 12:34:06;;;;;;;8.27;3.95;;;24.50;73.80;;;;;;5064889;28;20489;-80
2021/09/28 12:36:32;;;;;;;8.35;4.72;;;24.50;73.30;;;;;;5066414;28;20036;-80
2021/09/28 12:39:15;;;;;;;6.47;4.68;;;24.60;72.70;;;;;;5065690;28;20060;-80
2021/09/28 12:42:05;;;;;;;9.30;4.53;;;24.70;71.40;;;;;;5064973;28;20032;-78
2021/09/28 12:44:33;;;;;;;6.88;4.05;;;25.00;70.70;;;;;;5066552;28;20025;-77
2021/09/28 12:47:18;;;;;;;8.20;4.15;;;24.90;70.70;;;;;;5065951;28;20024;-77
2021/09/28 12:49:44;;;;;;;7.13;3.90;;;24.80;71.20;;;;;;5065946;28;20040;-77
2021/09/28 12:52:10;;;;;;;7.90;4.18;;;24.70;71.30;;;;;;5066354;28;20573;-78
2021/09/28 12:54:35;;;;;;;9.02;3.60;;;24.60;71.60;;;;;;5066292;28;20079;-78